createdAt,value
2023-04-14T00:00:40.309Z,0.00
2023-04-14T00:01:40.301Z,0.00
2023-04-14T00:02:40.490Z,0.00
2023-04-14T00:03:40.385Z,0.00
2023-04-14T00:04:40.396Z,0.00
2023-04-14T00:05:40.240Z,0.00
2023-04-14T00:06:40.241Z,0.00
2023-04-14T00:07:40.219Z,0.00
2023-04-14T00:08:40.211Z,0.00
2023-04-14T00:09:40.191Z,0.00
2023-04-14T00:10:40.187Z,0.00
2023-04-14T00:11:40.164Z,0.00
2023-04-14T00:12:40.178Z,0.00
2023-04-14T00:13:40.140Z,0.00
2023-04-14T00:14:40.129Z,0.00
2023-04-14T00:15:40.116Z,0.00
2023-04-14T00:16:40.131Z,0.00
2023-04-14T00:17:40.229Z,0.00
2023-04-14T00:18:40.091Z,0.00
2023-04-14T00:19:40.063Z,0.00
2023-04-14T00:20:40.058Z,0.00
2023-04-14T00:21:40.053Z,0.00
2023-04-14T00:22:40.050Z,0.00
2023-04-14T00:23:40.020Z,0.00
2023-04-14T00:24:40.006Z,0.00
2023-04-14T00:25:39.999Z,0.00
2023-04-14T00:26:39.980Z,0.00
2023-04-14T00:28:39.982Z,0.00
2023-04-14T00:29:39.945Z,0.00
2023-04-14T00:30:39.931Z,0.00
2023-04-14T00:31:39.973Z,0.00
2023-04-14T00:32:39.961Z,0.00
2023-04-14T00:33:39.893Z,0.00
2023-04-14T00:34:39.884Z,0.00
2023-04-14T00:35:39.870Z,0.00
2023-04-14T00:36:39.859Z,0.00
2023-04-14T00:37:39.849Z,0.00
2023-04-14T00:38:39.832Z,0.00
2023-04-14T00:39:39.820Z,0.00
2023-04-14T00:40:39.813Z,0.00
2023-04-14T00:41:39.795Z,0.00
2023-04-14T00:42:39.785Z,0.00
2023-04-14T00:43:39.773Z,0.00
2023-04-14T00:44:39.781Z,0.00
2023-04-14T00:45:39.747Z,0.00
2023-04-14T00:46:39.789Z,0.00
2023-04-14T00:47:39.748Z,0.00
2023-04-14T00:48:39.740Z,0.00
2023-04-14T00:49:39.695Z,0.00
2023-04-14T00:50:39.683Z,0.00
2023-04-14T00:51:39.674Z,0.00
2023-04-14T00:52:39.661Z,0.00
2023-04-14T00:53:39.644Z,0.00
2023-04-14T00:54:39.634Z,0.00
2023-04-14T00:55:39.620Z,0.00
2023-04-14T00:56:39.612Z,0.00
2023-04-14T00:57:39.595Z,0.00
2023-04-14T00:58:39.584Z,0.00
2023-04-14T00:59:39.587Z,0.00
2023-04-14T01:00:39.599Z,0.00
2023-04-14T01:01:39.592Z,0.00
2023-04-14T01:02:39.711Z,0.00
2023-04-14T01:03:39.652Z,0.00
2023-04-14T01:04:52.234Z,0.00
2023-04-14T01:05:39.495Z,0.00
2023-04-14T01:06:39.496Z,0.00
2023-04-14T01:07:39.467Z,0.00
2023-04-14T01:08:39.457Z,0.00
2023-04-14T01:09:39.449Z,0.00
2023-04-14T01:10:39.429Z,0.00
2023-04-14T01:11:39.415Z,0.00
2023-04-14T01:12:39.403Z,0.00
2023-04-14T01:13:39.389Z,0.00
2023-04-14T01:14:39.378Z,0.00
2023-04-14T01:15:39.394Z,0.00
2023-04-14T01:16:39.462Z,0.00
2023-04-14T01:17:39.379Z,0.00
2023-04-14T01:18:39.331Z,0.00
2023-04-14T01:19:39.329Z,0.00
2023-04-14T01:20:39.303Z,0.00
2023-04-14T01:21:39.292Z,0.00
2023-04-14T01:22:39.280Z,0.00
2023-04-14T01:23:39.270Z,0.00
2023-04-14T01:24:39.263Z,0.00
2023-04-14T01:25:39.265Z,0.00
2023-04-14T01:26:39.240Z,0.00
2023-04-14T01:27:39.217Z,0.00
2023-04-14T01:28:39.221Z,0.00
2023-04-14T01:29:39.196Z,0.00
2023-04-14T01:30:39.181Z,0.00
2023-04-14T01:31:39.222Z,0.00
2023-04-14T01:32:39.228Z,0.00
2023-04-14T01:33:39.147Z,0.00
2023-04-14T01:34:39.147Z,0.00
2023-04-14T01:35:39.117Z,0.00
2023-04-14T01:36:39.132Z,0.00
2023-04-14T01:37:39.102Z,0.00
2023-04-14T01:38:39.091Z,0.00
2023-04-14T01:39:39.074Z,0.00
2023-04-14T01:40:39.057Z,0.00
2023-04-14T01:41:39.050Z,0.00
2023-04-14T01:42:39.036Z,0.00
2023-04-14T01:43:39.024Z,0.00
2023-04-14T01:44:39.017Z,0.00
2023-04-14T01:45:39.092Z,0.00
2023-04-14T01:46:38.982Z,0.00
2023-04-14T01:47:39.005Z,0.00
2023-04-14T01:48:38.983Z,0.00
2023-04-14T01:49:38.971Z,0.00
2023-04-14T01:50:38.938Z,0.00
2023-04-14T01:51:38.921Z,0.00
2023-04-14T01:52:38.914Z,0.00
2023-04-14T01:53:38.897Z,0.00
2023-04-14T01:54:38.887Z,0.00
2023-04-14T01:55:38.874Z,0.00
2023-04-14T01:56:38.865Z,0.00
2023-04-14T01:57:38.850Z,0.00
2023-04-14T01:58:38.837Z,0.00
2023-04-14T01:59:38.838Z,0.00
2023-04-14T02:00:38.850Z,0.00
2023-04-14T02:01:38.919Z,0.00
2023-04-14T02:02:38.906Z,0.00
2023-04-14T02:03:38.930Z,0.00
2023-04-14T02:04:38.802Z,0.00
2023-04-14T02:05:38.754Z,0.00
2023-04-14T02:06:38.738Z,0.00
2023-04-14T02:07:38.743Z,0.00
2023-04-14T02:08:38.715Z,0.00
2023-04-14T02:09:38.701Z,0.00
2023-04-14T02:10:38.702Z,0.00
2023-04-14T02:11:38.686Z,0.00
2023-04-14T02:12:38.664Z,0.00
2023-04-14T02:13:38.649Z,0.00
2023-04-14T02:14:38.658Z,0.00
2023-04-14T02:15:38.628Z,0.00
2023-04-14T02:16:38.672Z,0.00
2023-04-14T02:17:38.632Z,0.00
2023-04-14T02:18:38.605Z,0.00
2023-04-14T02:19:38.601Z,0.00
2023-04-14T02:20:38.603Z,0.00
2023-04-14T02:21:38.553Z,0.00
2023-04-14T02:22:38.539Z,0.00
2023-04-14T02:23:38.528Z,0.00
2023-04-14T02:24:38.521Z,0.00
2023-04-14T02:25:38.501Z,0.00
2023-04-14T02:26:38.529Z,0.00
2023-04-14T02:27:38.531Z,0.00
2023-04-14T02:28:38.496Z,0.00
2023-04-14T02:29:38.495Z,0.00
2023-04-14T02:30:38.502Z,0.00
2023-04-14T02:31:38.437Z,0.00
2023-04-14T02:32:38.447Z,0.00
2023-04-14T02:33:38.409Z,0.00
2023-04-14T02:34:38.479Z,0.00
2023-04-14T02:35:38.379Z,0.00
2023-04-14T02:36:38.406Z,0.00
2023-04-14T02:37:38.357Z,0.00
2023-04-14T02:38:38.349Z,0.00
2023-04-14T02:39:38.338Z,0.00
2023-04-14T02:40:38.328Z,0.00
2023-04-14T02:41:38.310Z,0.00
2023-04-14T02:42:38.295Z,0.00
2023-04-14T02:43:38.282Z,0.00
2023-04-14T02:44:38.270Z,0.00
2023-04-14T02:45:38.268Z,0.00
2023-04-14T02:46:38.375Z,0.00
2023-04-14T02:47:38.316Z,0.00
2023-04-14T02:48:38.223Z,0.00
2023-04-14T02:49:38.217Z,0.00
2023-04-14T02:50:38.199Z,0.00
2023-04-14T02:51:38.188Z,0.00
2023-04-14T02:52:38.198Z,0.00
2023-04-14T02:53:38.171Z,0.00
2023-04-14T02:54:38.152Z,0.00
2023-04-14T02:55:38.156Z,0.00
2023-04-14T02:56:38.131Z,0.00
2023-04-14T02:57:38.117Z,0.00
2023-04-14T02:58:38.111Z,0.00
2023-04-14T02:59:38.090Z,0.00
2023-04-14T03:00:38.078Z,0.00
2023-04-14T03:01:38.094Z,0.00
2023-04-14T03:02:38.145Z,0.00
2023-04-14T03:03:38.107Z,0.00
2023-04-14T03:04:38.266Z,0.00
2023-04-14T03:05:38.017Z,0.00
2023-04-14T03:06:38.004Z,0.00
2023-04-14T03:07:38.001Z,0.00
2023-04-14T03:08:38.005Z,0.00
2023-04-14T03:09:37.973Z,0.00
2023-04-14T03:10:37.952Z,0.00
2023-04-14T03:11:37.948Z,0.00
2023-04-14T03:12:37.947Z,0.00
2023-04-14T03:13:37.933Z,0.00
2023-04-14T03:14:37.912Z,0.00
2023-04-14T03:15:37.970Z,0.00
2023-04-14T03:16:37.880Z,0.00
2023-04-14T03:17:37.951Z,0.00
2023-04-14T03:18:37.863Z,0.00
2023-04-14T03:19:37.846Z,0.00
2023-04-14T03:20:37.828Z,0.00
2023-04-14T03:21:37.817Z,0.00
2023-04-14T03:22:37.805Z,0.00
2023-04-14T03:23:37.799Z,0.00
2023-04-14T03:24:37.803Z,0.00
2023-04-14T03:25:37.767Z,0.00
2023-04-14T03:26:37.759Z,0.00
2023-04-14T03:27:37.740Z,0.00
2023-04-14T03:28:38.263Z,0.00
2023-04-14T03:29:37.768Z,0.00
2023-04-14T03:30:37.701Z,0.00
2023-04-14T03:31:37.746Z,0.00
2023-04-14T03:32:37.701Z,0.00
2023-04-14T03:33:37.673Z,0.00
2023-04-14T03:34:37.650Z,0.00
2023-04-14T03:35:37.677Z,0.00
2023-04-14T03:36:37.635Z,0.00
2023-04-14T03:37:37.618Z,0.00
2023-04-14T03:38:37.599Z,0.00
2023-04-14T03:39:37.588Z,0.00
2023-04-14T03:40:37.611Z,0.00
2023-04-14T03:41:37.568Z,0.00
2023-04-14T03:42:37.548Z,0.00
2023-04-14T03:43:37.536Z,0.00
2023-04-14T03:44:37.523Z,0.00
2023-04-14T03:45:37.513Z,0.00
2023-04-14T03:46:37.516Z,0.00
2023-04-14T03:47:37.555Z,0.00
2023-04-14T03:48:37.475Z,0.00
2023-04-14T03:49:37.462Z,0.00
2023-04-14T03:50:37.458Z,0.00
2023-04-14T03:51:37.449Z,0.00
2023-04-14T03:52:37.423Z,0.00
2023-04-14T03:53:37.412Z,0.00
2023-04-14T03:54:37.399Z,0.00
2023-04-14T03:55:37.391Z,0.00
2023-04-14T03:56:37.397Z,0.00
2023-04-14T03:57:37.372Z,0.00
2023-04-14T03:58:37.348Z,0.00
2023-04-14T03:59:37.337Z,0.00
2023-04-14T04:00:37.320Z,0.00
2023-04-14T04:01:37.340Z,0.00
2023-04-14T04:02:37.499Z,0.00
2023-04-14T04:03:37.600Z,0.00
2023-04-14T04:04:37.364Z,0.00
2023-04-14T04:05:37.260Z,0.00
2023-04-14T04:06:37.249Z,0.00
2023-04-14T04:07:37.237Z,0.00
2023-04-14T04:08:37.218Z,0.00
2023-04-14T04:09:37.207Z,0.00
2023-04-14T04:10:37.195Z,0.00
2023-04-14T04:11:37.182Z,0.00
2023-04-14T04:12:37.201Z,0.00
2023-04-14T04:13:37.158Z,0.00
2023-04-14T04:14:39.063Z,0.00
2023-04-14T04:15:37.130Z,0.00
2023-04-14T04:16:37.192Z,0.00
2023-04-14T04:17:37.137Z,0.00
2023-04-14T04:18:37.092Z,0.00
2023-04-14T04:19:37.088Z,0.00
2023-04-14T04:20:37.070Z,0.00
2023-04-14T04:21:37.058Z,0.00
2023-04-14T04:22:37.045Z,0.00
2023-04-14T04:23:37.033Z,0.00
2023-04-14T04:24:37.013Z,0.00
2023-04-14T04:25:37.008Z,0.00
2023-04-14T04:26:36.994Z,0.00
2023-04-14T04:27:36.985Z,0.00
2023-04-14T04:29:36.958Z,0.01
2023-04-14T04:30:36.945Z,0.01
2023-04-14T04:31:36.959Z,0.01
2023-04-14T04:32:36.976Z,0.01
2023-04-14T04:33:36.902Z,0.01
2023-04-14T04:34:36.891Z,0.02
2023-04-14T04:35:36.878Z,0.02
2023-04-14T04:36:36.861Z,0.02
2023-04-14T04:37:36.876Z,0.02
2023-04-14T04:38:36.843Z,0.03
2023-04-14T04:39:36.853Z,0.03
2023-04-14T04:40:36.849Z,0.03
2023-04-14T04:41:36.867Z,0.05
2023-04-14T04:42:36.794Z,0.05
2023-04-14T04:43:36.803Z,0.05
2023-04-14T04:44:36.832Z,0.06
2023-04-14T04:45:36.750Z,0.06
2023-04-14T04:46:36.819Z,0.06
2023-04-14T04:47:36.782Z,0.07
2023-04-14T04:48:36.717Z,0.07
2023-04-14T04:49:36.710Z,0.08
2023-04-14T04:50:36.714Z,0.08
2023-04-14T04:51:36.684Z,0.10
2023-04-14T04:52:36.663Z,0.10
2023-04-14T04:53:36.648Z,0.11
2023-04-14T04:54:36.631Z,0.12
2023-04-14T04:55:36.623Z,0.13
2023-04-14T04:56:36.618Z,0.13
2023-04-14T04:57:36.606Z,0.15
2023-04-14T04:58:36.583Z,0.16
2023-04-14T04:59:38.039Z,0.17
2023-04-14T05:00:36.579Z,0.17
2023-04-14T05:01:36.643Z,0.18
2023-04-14T05:02:36.657Z,0.18
2023-04-14T05:03:36.569Z,0.20
2023-04-14T05:04:36.543Z,0.21
2023-04-14T05:05:36.510Z,0.21
2023-04-14T05:06:36.481Z,0.22
2023-04-14T05:07:36.471Z,0.22
2023-04-14T05:08:36.457Z,0.24
2023-04-14T05:09:36.446Z,0.25
2023-04-14T05:10:36.432Z,0.26
2023-04-14T05:11:36.429Z,0.27
2023-04-14T05:12:36.438Z,0.27
2023-04-14T05:13:36.396Z,0.29
2023-04-14T05:14:36.382Z,0.30
2023-04-14T05:15:36.458Z,0.30
2023-04-14T05:16:36.393Z,0.31
2023-04-14T05:17:36.385Z,0.32
2023-04-14T05:18:36.336Z,0.32
2023-04-14T05:19:36.334Z,0.34
2023-04-14T05:20:36.306Z,0.35
2023-04-14T05:21:36.324Z,0.35
2023-04-14T05:22:36.285Z,0.36
2023-04-14T05:23:36.274Z,0.37
2023-04-14T05:24:36.264Z,0.39
2023-04-14T05:25:36.254Z,0.40
2023-04-14T05:26:57.858Z,0.44
2023-04-14T05:27:36.225Z,0.48
2023-04-14T05:28:36.219Z,0.48
2023-04-14T05:29:36.194Z,0.46
2023-04-14T05:30:36.176Z,0.45
2023-04-14T05:31:36.205Z,0.48
2023-04-14T05:32:36.197Z,0.56
2023-04-14T05:33:36.140Z,0.65
2023-04-14T05:34:36.132Z,0.67
2023-04-14T05:35:36.116Z,0.55
2023-04-14T05:36:36.104Z,0.54
2023-04-14T05:37:36.392Z,0.55
2023-04-14T05:38:36.074Z,0.54
2023-04-14T05:39:36.079Z,0.55
2023-04-14T05:40:36.051Z,0.55
2023-04-14T05:41:36.047Z,0.56
2023-04-14T05:42:36.029Z,0.59
2023-04-14T05:43:36.025Z,0.59
2023-04-14T05:44:36.016Z,0.54
2023-04-14T05:45:36.008Z,0.51
2023-04-14T05:46:36.018Z,0.49
2023-04-14T05:47:36.030Z,0.49
2023-04-14T05:48:35.973Z,0.49
2023-04-14T05:49:35.952Z,0.48
2023-04-14T05:50:35.924Z,0.44
2023-04-14T05:51:35.914Z,0.43
2023-04-14T05:52:35.911Z,0.43
2023-04-14T05:53:35.900Z,0.45
2023-04-14T05:54:35.883Z,0.45
2023-04-14T05:55:35.865Z,0.48
2023-04-14T05:56:35.859Z,0.48
2023-04-14T05:57:35.850Z,0.48
2023-04-14T05:58:35.823Z,0.53
2023-04-14T05:59:35.812Z,0.59
2023-04-14T06:00:35.819Z,0.59
2023-04-14T06:01:35.818Z,0.56
2023-04-14T06:02:35.871Z,0.56
2023-04-14T06:04:35.879Z,0.67
2023-04-14T06:05:35.756Z,0.68
2023-04-14T06:06:35.720Z,0.65
2023-04-14T06:07:35.712Z,0.56
2023-04-14T06:08:35.694Z,0.53
2023-04-14T06:09:35.683Z,0.58
2023-04-14T06:10:35.689Z,0.62
2023-04-14T06:11:35.694Z,0.62
2023-04-14T06:12:35.642Z,0.60
2023-04-14T06:13:36.592Z,0.59
2023-04-14T06:14:35.644Z,0.59
2023-04-14T06:15:35.603Z,0.62
2023-04-14T06:16:35.649Z,0.63
2023-04-14T06:17:35.709Z,0.63
2023-04-14T06:18:35.566Z,0.63
2023-04-14T06:19:35.553Z,0.62
2023-04-14T06:20:35.554Z,0.62
2023-04-14T06:21:35.523Z,0.62
2023-04-14T06:22:35.517Z,0.62
2023-04-14T06:23:35.500Z,0.63
2023-04-14T06:24:35.493Z,0.65
2023-04-14T06:25:35.474Z,0.68
2023-04-14T06:26:35.459Z,0.69
2023-04-14T06:27:35.447Z,0.72
2023-04-14T06:28:35.433Z,0.77
2023-04-14T06:29:35.424Z,0.81
2023-04-14T06:30:35.406Z,0.83
2023-04-14T06:31:35.452Z,0.83
2023-04-14T06:32:35.438Z,0.82
2023-04-14T06:33:35.371Z,0.82
2023-04-14T06:34:35.357Z,0.87
2023-04-14T06:35:35.346Z,0.94
2023-04-14T06:36:35.363Z,1.03
2023-04-14T06:37:35.319Z,1.06
2023-04-14T06:38:35.305Z,1.05
2023-04-14T06:39:35.294Z,1.08
2023-04-14T06:40:35.283Z,1.17
2023-04-14T06:41:35.268Z,1.30
2023-04-14T06:42:35.256Z,1.40
2023-04-14T06:43:35.249Z,1.51
2023-04-14T06:44:35.232Z,1.59
2023-04-14T06:45:35.244Z,1.60
2023-04-14T06:46:35.397Z,1.63
2023-04-14T06:47:35.216Z,1.59
2023-04-14T06:48:35.185Z,1.49
2023-04-14T06:49:35.164Z,1.50
2023-04-14T06:50:35.153Z,1.51
2023-04-14T06:51:35.148Z,1.55
2023-04-14T06:52:35.149Z,1.56
2023-04-14T06:53:35.112Z,1.65
2023-04-14T06:54:35.098Z,1.74
2023-04-14T06:55:35.085Z,1.96
2023-04-14T06:56:35.074Z,2.10
2023-04-14T06:57:35.059Z,2.11
2023-04-14T06:58:35.112Z,2.25
2023-04-14T06:59:35.036Z,2.45
2023-04-14T07:00:35.023Z,2.31
2023-04-14T07:01:35.037Z,2.35
2023-04-14T07:02:35.031Z,2.32
2023-04-14T07:03:35.024Z,2.03
2023-04-14T07:04:35.038Z,2.17
2023-04-14T07:05:34.956Z,2.87
2023-04-14T07:06:34.941Z,3.79
2023-04-14T07:07:34.924Z,5.61
2023-04-14T07:08:35.029Z,4.41
2023-04-14T07:09:34.967Z,6.12
2023-04-14T07:10:34.893Z,2.49
2023-04-14T07:11:34.873Z,2.27
2023-04-14T07:12:34.883Z,3.65
2023-04-14T07:13:34.851Z,3.41
2023-04-14T07:14:34.839Z,3.69
2023-04-14T07:15:34.882Z,4.50
2023-04-14T07:16:34.813Z,4.67
2023-04-14T07:17:34.856Z,3.67
2023-04-14T07:18:34.786Z,2.58
2023-04-14T07:19:34.770Z,2.22
2023-04-14T07:20:34.758Z,2.59
2023-04-14T07:21:34.743Z,3.82
2023-04-14T07:22:34.737Z,2.65
2023-04-14T07:23:34.729Z,2.03
2023-04-14T07:24:34.730Z,2.59
2023-04-14T07:25:34.691Z,3.01
2023-04-14T07:26:34.676Z,2.54
2023-04-14T07:27:34.664Z,2.59
2023-04-14T07:28:34.654Z,3.40
2023-04-14T07:29:34.643Z,3.65
2023-04-14T07:30:34.625Z,3.79
2023-04-14T07:31:34.676Z,2.93
2023-04-14T07:32:34.607Z,3.53
2023-04-14T07:33:34.591Z,3.46
2023-04-14T07:34:34.572Z,2.65
2023-04-14T07:35:34.569Z,2.82
2023-04-14T07:36:34.562Z,3.67
2023-04-14T07:37:34.550Z,4.08
2023-04-14T07:38:34.535Z,3.80
2023-04-14T07:39:34.506Z,5.32
2023-04-14T07:40:34.532Z,7.27
2023-04-14T07:41:34.499Z,7.46
2023-04-14T07:42:34.472Z,7.45
2023-04-14T07:43:34.459Z,6.39
2023-04-14T07:44:34.444Z,3.60
2023-04-14T07:45:34.433Z,3.24
2023-04-14T07:46:34.465Z,5.13
2023-04-14T07:47:34.433Z,5.29
2023-04-14T07:48:34.412Z,3.39
2023-04-14T07:49:34.381Z,3.39
2023-04-14T07:50:34.392Z,4.48
2023-04-14T07:51:34.359Z,4.49
2023-04-14T07:52:34.343Z,6.16
2023-04-14T07:53:34.338Z,6.58
2023-04-14T07:54:34.319Z,7.11
2023-04-14T07:55:34.312Z,6.75
2023-04-14T07:56:34.344Z,7.39
2023-04-14T07:57:34.289Z,7.20
2023-04-14T07:58:34.274Z,6.31
2023-04-14T07:59:34.251Z,6.92
2023-04-14T08:00:34.242Z,6.93
2023-04-14T08:01:34.228Z,7.12
2023-04-14T08:02:34.326Z,7.37
2023-04-14T08:03:34.310Z,7.40
2023-04-14T08:04:34.200Z,7.60
2023-04-14T08:05:34.255Z,7.78
2023-04-14T08:06:34.182Z,7.82
2023-04-14T08:07:34.151Z,7.72
2023-04-14T08:08:34.139Z,7.63
2023-04-14T08:09:34.123Z,7.74
2023-04-14T08:10:34.118Z,7.64
2023-04-14T08:11:34.097Z,7.69
2023-04-14T08:12:34.110Z,7.73
2023-04-14T08:13:34.073Z,7.77
2023-04-14T08:14:34.063Z,7.75
2023-04-14T08:15:34.052Z,7.78
2023-04-14T08:16:34.079Z,7.75
2023-04-14T08:17:34.036Z,7.51
2023-04-14T08:18:34.011Z,7.21
2023-04-14T08:19:34.003Z,7.04
2023-04-14T08:20:33.984Z,6.98
2023-04-14T08:21:33.970Z,7.15
2023-04-14T08:22:33.962Z,7.40
2023-04-14T08:23:33.970Z,7.64
2023-04-14T08:24:34.937Z,7.68
2023-04-14T08:25:33.921Z,7.70
2023-04-14T08:26:33.907Z,7.65
2023-04-14T08:27:33.894Z,7.61
2023-04-14T08:28:33.911Z,7.63
2023-04-14T08:29:33.875Z,7.66
2023-04-14T08:30:33.874Z,7.74
2023-04-14T08:31:33.864Z,7.82
2023-04-14T08:32:33.901Z,7.87
2023-04-14T08:33:33.832Z,7.93
2023-04-14T08:34:33.815Z,7.94
2023-04-14T08:35:35.111Z,7.93
2023-04-14T08:36:35.779Z,7.97
2023-04-14T08:37:33.770Z,8.11
2023-04-14T08:38:33.767Z,8.17
2023-04-14T08:39:33.745Z,8.08
2023-04-14T08:40:33.740Z,8.06
2023-04-14T08:41:33.724Z,8.08
2023-04-14T08:42:33.706Z,8.15
2023-04-14T08:43:33.689Z,8.17
2023-04-14T08:44:33.704Z,8.04
2023-04-14T08:45:33.697Z,8.06
2023-04-14T08:46:33.680Z,8.13
2023-04-14T08:47:33.678Z,8.10
2023-04-14T08:48:33.637Z,8.04
2023-04-14T08:49:33.626Z,8.04
2023-04-14T08:50:33.618Z,7.99
2023-04-14T08:51:33.608Z,7.99
2023-04-14T08:52:33.600Z,8.10
2023-04-14T08:53:33.579Z,8.22
2023-04-14T08:54:33.562Z,8.40
2023-04-14T08:55:33.548Z,8.49
2023-04-14T08:56:33.541Z,8.53
2023-04-14T08:57:33.522Z,8.58
2023-04-14T08:58:33.514Z,8.74
2023-04-14T08:59:33.499Z,8.80
2023-04-14T09:00:33.518Z,8.92
2023-04-14T09:01:35.689Z,8.98
2023-04-14T09:02:33.629Z,8.99
2023-04-14T09:03:33.689Z,8.92
2023-04-14T09:04:33.553Z,8.82
2023-04-14T09:05:33.439Z,8.78
2023-04-14T09:06:33.419Z,8.74
2023-04-14T09:07:33.402Z,8.84
2023-04-14T09:08:33.391Z,8.88
2023-04-14T09:09:33.381Z,8.85
2023-04-14T09:10:33.366Z,8.84
2023-04-14T09:11:33.353Z,8.87
2023-04-14T09:12:33.343Z,8.98
2023-04-14T09:13:33.326Z,9.04
2023-04-14T09:14:33.322Z,9.11
2023-04-14T09:15:33.317Z,9.17
2023-04-14T09:16:33.358Z,9.18
2023-04-14T09:17:33.290Z,9.13
2023-04-14T09:18:34.402Z,9.12
2023-04-14T09:19:33.259Z,9.21
2023-04-14T09:20:37.337Z,9.39
2023-04-14T09:21:51.976Z,9.49
2023-04-14T09:22:35.218Z,9.53
2023-04-14T09:23:33.208Z,9.39
2023-04-14T09:24:33.201Z,9.07
2023-04-14T09:25:33.182Z,8.69
2023-04-14T09:26:33.189Z,8.13
2023-04-14T09:27:33.160Z,7.47
2023-04-14T09:28:33.153Z,7.08
2023-04-14T09:29:33.146Z,7.04
2023-04-14T09:30:33.143Z,7.25
2023-04-14T09:31:33.213Z,7.69
2023-04-14T09:32:33.226Z,8.23
2023-04-14T09:33:33.082Z,8.69
2023-04-14T09:34:33.180Z,8.90
2023-04-14T09:35:33.056Z,9.06
2023-04-14T09:36:33.045Z,9.32
2023-04-14T09:37:33.031Z,9.63
2023-04-14T09:38:33.022Z,9.68
2023-04-14T09:39:33.012Z,9.58
2023-04-14T09:40:33.012Z,9.46
2023-04-14T09:41:32.985Z,9.47
2023-04-14T09:42:32.970Z,9.44
2023-04-14T09:43:32.967Z,9.31
2023-04-14T09:44:32.947Z,9.30
2023-04-14T09:45:32.933Z,9.34
2023-04-14T09:46:32.925Z,9.35
2023-04-14T09:47:32.936Z,9.36
2023-04-14T09:48:32.931Z,9.25
2023-04-14T09:49:32.888Z,9.15
2023-04-14T09:50:32.873Z,9.01
2023-04-14T09:51:32.860Z,8.83
2023-04-14T09:52:32.850Z,8.80
2023-04-14T09:53:32.836Z,8.89
2023-04-14T09:54:32.825Z,8.99
2023-04-14T09:55:32.810Z,8.96
2023-04-14T09:56:32.831Z,8.98
2023-04-14T09:57:32.785Z,9.12
2023-04-14T09:58:32.787Z,9.22
2023-04-14T09:59:32.765Z,9.16
2023-04-14T10:00:32.757Z,9.11
2023-04-14T10:01:32.801Z,9.17
2023-04-14T10:02:32.968Z,9.31
2023-04-14T10:03:34.141Z,9.42
2023-04-14T10:04:32.749Z,9.40
2023-04-14T10:05:34.744Z,9.40
2023-04-14T10:06:32.676Z,9.42
2023-04-14T10:07:32.666Z,9.59
2023-04-14T10:08:32.658Z,9.77
2023-04-14T10:09:32.643Z,9.78
2023-04-14T10:10:32.749Z,9.88
2023-04-14T10:11:32.910Z,9.96
2023-04-14T10:12:32.607Z,9.88
2023-04-14T10:13:32.600Z,9.69
2023-04-14T10:14:32.588Z,9.50
2023-04-14T10:15:32.581Z,9.47
2023-04-14T10:16:32.856Z,9.53
2023-04-14T10:17:34.209Z,9.66
2023-04-14T10:18:32.535Z,9.79
2023-04-14T10:19:32.520Z,9.87
2023-04-14T10:20:32.536Z,9.74
2023-04-14T10:21:32.501Z,9.59
2023-04-14T10:22:32.490Z,9.54
2023-04-14T10:23:32.476Z,9.61
2023-04-14T10:24:32.472Z,9.70
2023-04-14T10:25:32.449Z,9.74
2023-04-14T10:26:32.438Z,9.64
2023-04-14T10:27:32.437Z,9.56
2023-04-14T10:28:34.285Z,9.54
2023-04-14T10:29:32.401Z,9.64
2023-04-14T10:30:32.394Z,9.74
2023-04-14T10:31:32.427Z,9.83
2023-04-14T10:32:32.409Z,9.89
2023-04-14T10:33:32.356Z,9.92
2023-04-14T10:34:32.352Z,9.96
2023-04-14T10:35:32.330Z,9.99
2023-04-14T10:36:32.401Z,10.04
2023-04-14T10:37:32.308Z,10.11
2023-04-14T10:38:32.297Z,10.06
2023-04-14T10:39:32.282Z,9.90
2023-04-14T10:40:32.274Z,9.82
2023-04-14T10:41:32.257Z,9.84
2023-04-14T10:42:32.251Z,9.84
2023-04-14T10:43:32.241Z,9.74
2023-04-14T10:44:32.254Z,9.65
2023-04-14T10:45:32.211Z,9.61
2023-04-14T10:46:32.220Z,9.63
2023-04-14T10:47:32.237Z,9.75
2023-04-14T10:48:32.180Z,9.92
2023-04-14T10:49:32.162Z,10.01
2023-04-14T10:50:32.153Z,9.99
2023-04-14T10:51:32.137Z,9.85
2023-04-14T10:52:32.160Z,9.68
2023-04-14T10:53:32.112Z,9.49
2023-04-14T10:54:32.101Z,9.17
2023-04-14T10:55:34.946Z,8.65
2023-04-14T10:56:32.078Z,8.04
2023-04-14T10:57:32.069Z,7.36
2023-04-14T10:58:32.055Z,6.82
2023-04-14T10:59:32.044Z,6.77
2023-04-14T11:00:32.117Z,7.27
2023-04-14T11:01:32.314Z,7.94
2023-04-14T11:02:32.304Z,8.56
2023-04-14T11:03:32.197Z,9.18
2023-04-14T11:04:32.097Z,9.72
2023-04-14T11:05:31.980Z,9.99
2023-04-14T11:06:31.957Z,9.99
2023-04-14T11:07:31.945Z,9.88
2023-04-14T11:08:31.958Z,9.78
2023-04-14T11:09:32.001Z,9.74
2023-04-14T11:10:31.920Z,9.68
2023-04-14T11:11:31.900Z,9.56
2023-04-14T11:12:31.893Z,9.66
2023-04-14T11:13:31.878Z,9.70
2023-04-14T11:14:31.862Z,9.60
2023-04-14T11:15:31.857Z,9.47
2023-04-14T11:16:31.870Z,9.35
2023-04-14T11:17:31.928Z,9.54
2023-04-14T11:18:31.826Z,9.49
2023-04-14T11:19:31.813Z,9.54
2023-04-14T11:20:31.795Z,9.59
2023-04-14T11:21:31.810Z,9.60
2023-04-14T11:22:31.777Z,9.63
2023-04-14T11:23:31.764Z,9.63
2023-04-14T11:24:31.788Z,9.64
2023-04-14T11:25:31.752Z,9.60
2023-04-14T11:26:31.728Z,9.59
2023-04-14T11:27:31.721Z,9.31
2023-04-14T11:28:31.711Z,8.98
2023-04-14T11:29:31.697Z,8.55
2023-04-14T11:30:31.699Z,8.51
2023-04-14T11:31:31.703Z,9.08
2023-04-14T11:32:31.693Z,9.45
2023-04-14T11:33:31.656Z,9.27
2023-04-14T11:34:31.644Z,8.82
2023-04-14T11:35:31.639Z,8.66
2023-04-14T11:36:31.618Z,8.80
2023-04-14T11:37:31.605Z,8.92
2023-04-14T11:38:31.604Z,9.08
2023-04-14T11:39:31.600Z,9.23
2023-04-14T11:40:31.606Z,9.51
2023-04-14T11:41:31.559Z,9.69
2023-04-14T11:42:31.546Z,9.66
2023-04-14T11:43:31.551Z,9.54
2023-04-14T11:44:31.521Z,9.50
2023-04-14T11:45:31.516Z,9.47
2023-04-14T11:46:31.557Z,9.39
2023-04-14T11:47:31.573Z,9.51
2023-04-14T11:48:31.477Z,3.20
2023-04-14T11:49:31.463Z,7.77
2023-04-14T11:50:31.545Z,6.29
2023-04-14T11:51:31.445Z,9.08
2023-04-14T11:52:31.423Z,9.08
2023-04-14T11:53:31.413Z,9.12
2023-04-14T11:54:31.430Z,9.09
2023-04-14T11:55:31.401Z,9.09
2023-04-14T11:56:31.399Z,9.06
2023-04-14T11:57:31.368Z,9.06
2023-04-14T11:58:31.352Z,9.12
2023-04-14T11:59:31.348Z,9.16
2023-04-14T12:00:31.330Z,9.13
2023-04-14T12:01:31.323Z,9.08
2023-04-14T12:02:31.423Z,9.02
2023-04-14T12:03:31.615Z,8.98
2023-04-14T12:04:31.533Z,8.94
2023-04-14T12:05:31.514Z,9.04
2023-04-14T12:06:31.263Z,9.03
2023-04-14T12:07:31.251Z,8.96
2023-04-14T12:08:31.274Z,8.83
2023-04-14T12:09:31.225Z,3.24
2023-04-14T12:10:31.215Z,5.65
2023-04-14T12:11:31.211Z,3.50
2023-04-14T12:12:31.224Z,2.65
2023-04-14T12:13:31.178Z,8.68
2023-04-14T12:14:31.167Z,3.18
2023-04-14T12:15:31.156Z,8.53
2023-04-14T12:16:31.200Z,8.82
2023-04-14T12:17:31.140Z,8.82
2023-04-14T12:18:31.115Z,8.83
2023-04-14T12:19:31.104Z,8.78
2023-04-14T12:20:31.089Z,8.85
2023-04-14T12:21:31.094Z,7.98
2023-04-14T12:22:31.060Z,8.47
2023-04-14T12:23:31.063Z,5.15
2023-04-14T12:24:31.042Z,2.49
2023-04-14T12:25:31.035Z,2.27
2023-04-14T12:26:31.009Z,2.26
2023-04-14T12:27:31.002Z,2.40
2023-04-14T12:28:31.010Z,2.78
2023-04-14T12:30:30.983Z,2.94
2023-04-14T12:31:31.125Z,5.75
2023-04-14T12:32:30.968Z,4.97
2023-04-14T12:33:30.928Z,7.66
2023-04-14T12:34:30.912Z,8.06
2023-04-14T12:35:30.965Z,8.04
2023-04-14T12:36:48.087Z,8.17
2023-04-14T12:37:31.878Z,8.15
2023-04-14T12:38:30.867Z,8.12
2023-04-14T12:39:30.859Z,7.84
2023-04-14T12:40:30.842Z,7.94
2023-04-14T12:41:30.838Z,7.96
2023-04-14T12:42:30.817Z,8.12
2023-04-14T12:43:30.810Z,8.06
2023-04-14T12:44:30.822Z,8.03
2023-04-14T12:45:30.781Z,7.96
2023-04-14T12:46:30.804Z,4.41
2023-04-14T12:47:30.866Z,5.54
2023-04-14T12:48:30.744Z,7.13
2023-04-14T12:49:30.735Z,4.50
2023-04-14T12:50:30.764Z,4.22
2023-04-14T12:51:30.706Z,8.01
2023-04-14T12:52:30.694Z,3.26
2023-04-14T12:53:30.680Z,6.56
2023-04-14T12:54:30.667Z,6.98
2023-04-14T12:55:30.658Z,7.07
2023-04-14T12:56:30.656Z,7.15
2023-04-14T12:57:30.630Z,3.77
2023-04-14T12:58:30.620Z,5.50
2023-04-14T12:59:30.611Z,7.59
2023-04-14T13:00:30.633Z,7.58
2023-04-14T13:01:30.742Z,7.51
2023-04-14T13:02:30.751Z,7.63
2023-04-14T13:03:30.760Z,7.49
2023-04-14T13:04:30.604Z,7.45
2023-04-14T13:05:30.538Z,7.30
2023-04-14T13:06:30.525Z,7.27
2023-04-14T13:07:30.514Z,7.18
2023-04-14T13:08:30.500Z,6.97
2023-04-14T13:09:30.511Z,6.74
2023-04-14T13:10:30.491Z,6.99
2023-04-14T13:11:30.467Z,6.70
2023-04-14T13:12:30.450Z,6.75
2023-04-14T13:13:30.448Z,6.99
2023-04-14T13:14:30.432Z,6.96
2023-04-14T13:16:11.402Z,6.91
2023-04-14T13:16:30.485Z,6.41
2023-04-14T13:17:30.560Z,6.92
2023-04-14T13:18:30.374Z,6.79
2023-04-14T13:19:30.367Z,6.78
2023-04-14T13:20:30.365Z,6.82
2023-04-14T13:21:30.339Z,6.63
2023-04-14T13:22:30.323Z,6.56